Time;durP1;ratioP1;P1;durP2;ratioP2;P2;SDS_P1;SDS_P2;PMS_P1;PMS_P2;Temp;Humidity;BMP_temperature;BMP_pressure;BME280_temperature;BME280_humidity;BME280_pressure;Samples;Min_cycle;Max_cycle;Signal;HPM_P1;HPM_P2
2023/08/24 04:00:21;;;;;;;3.33;3.03;;;17.40;99.90;;;;;;6077008;23;20922;-68
2023/08/24 04:02:48;;;;;;;5.53;3.00;;;17.30;99.90;;;;;;6152235;23;20416;-67
2023/08/24 04:05:14;;;;;;;4.93;2.97;;;17.30;99.90;;;;;;6155423;23;20428;-67
2023/08/24 04:07:41;;;;;;;3.13;3.00;;;17.30;99.90;;;;;;6154866;23;20421;-68
2023/08/24 04:10:10;;;;;;;3.63;3.43;;;17.30;99.90;;;;;;6154481;23;20428;-68
2023/08/24 04:12:36;;;;;;;3.47;3.30;;;17.30;99.90;;;;;;6124661;23;20420;-67
2023/08/24 04:15:04;;;;;;;4.07;3.87;;;17.30;99.90;;;;;;6135432;23;20471;-70
2023/08/24 04:17:32;;;;;;;4.43;3.30;;;17.30;99.90;;;;;;6153751;23;20416;-69
2023/08/24 04:19:59;;;;;;;3.30;2.90;;;17.30;99.90;;;;;;6152277;23;20550;-69
2023/08/24 04:22:26;;;;;;;3.67;3.47;;;17.20;99.90;;;;;;6153315;23;20925;-70
2023/08/24 04:24:52;;;;;;;2.47;2.37;;;17.20;99.90;;;;;;6153336;23;20443;-70
2023/08/24 04:27:19;;;;;;;2.50;2.40;;;17.20;99.90;;;;;;6154284;23;20420;-69
2023/08/24 04:29:46;;;;;;;4.00;3.70;;;17.20;99.90;;;;;;6152828;23;20759;-69
2023/08/24 04:32:13;;;;;;;3.63;3.07;;;17.30;99.90;;;;;;6154023;23;20771;-69
2023/08/24 04:34:41;;;;;;;3.00;2.87;;;17.30;99.90;;;;;;6154090;23;20451;-69
2023/08/24 04:37:07;;;;;;;5.33;3.43;;;17.40;99.90;;;;;;6154181;23;20424;-68
2023/08/24 04:39:34;;;;;;;4.80;3.80;;;17.40;99.90;;;;;;6153712;23;20481;-69
2023/08/24 04:42:02;;;;;;;3.93;3.63;;;17.50;99.90;;;;;;6152989;23;20423;-69
2023/08/24 04:44:29;;;;;;;5.10;4.70;;;17.60;99.90;;;;;;6154263;23;20413;-70
2023/08/24 04:46:55;;;;;;;4.07;3.77;;;17.60;99.90;;;;;;6154717;23;20417;-70
2023/08/24 04:49:22;;;;;;;4.10;3.30;;;17.70;99.90;;;;;;6153367;23;20417;-70
2023/08/24 04:51:50;;;;;;;5.10;4.70;;;17.70;99.90;;;;;;6154972;23;20741;-70
2023/08/24 04:54:17;;;;;;;5.90;5.47;;;17.80;99.90;;;;;;6154380;23;20423;-70
2023/08/24 04:56:43;;;;;;;3.17;2.97;;;17.80;99.90;;;;;;6153924;23;20424;-69
2023/08/24 04:59:10;;;;;;;2.80;2.70;;;17.80;99.90;;;;;;6153923;23;20418;-69
2023/08/24 05:01:37;;;;;;;3.10;2.90;;;17.90;99.90;;;;;;6164101;23;20476;-71
2023/08/24 05:04:04;;;;;;;7.00;2.90;;;17.90;99.90;;;;;;6154495;23;20898;-66
2023/08/24 05:06:30;;;;;;;3.03;2.83;;;17.90;99.90;;;;;;6154868;23;20913;-67
2023/08/24 05:08:58;;;;;;;3.20;2.93;;;17.90;99.90;;;;;;6153772;23;20837;-67
2023/08/24 05:11:28;;;;;;;3.93;3.47;;;17.90;99.90;;;;;;6154138;23;20418;-68
2023/08/24 05:13:55;;;;;;;3.60;3.40;;;18.00;99.90;;;;;;6154794;23;20410;-66
2023/08/24 05:16:22;;;;;;;3.57;3.27;;;18.00;99.90;;;;;;6149429;23;20449;-67
2023/08/24 05:18:49;;;;;;;2.80;2.60;;;18.00;99.90;;;;;;6151218;23;20419;-68
2023/08/24 05:21:16;;;;;;;3.10;2.90;;;18.30;99.90;;;;;;6153860;23;20453;-67
2023/08/24 05:23:42;;;;;;;7.50;3.73;;;18.10;99.90;;;;;;6153480;23;20428;-67
2023/08/24 05:26:10;;;;;;;3.20;2.93;;;18.10;99.90;;;;;;6151798;23;20446;-67
2023/08/24 05:28:37;;;;;;;4.20;3.90;;;18.20;99.90;;;;;;6152203;23;20449;-67
2023/08/24 05:31:04;;;;;;;4.17;3.87;;;18.30;99.90;;;;;;6153621;23;20445;-68
2023/08/24 05:33:33;;;;;;;3.93;3.63;;;18.30;99.90;;;;;;6152528;23;20919;-67
2023/08/24 05:35:59;;;;;;;3.37;3.27;;;18.40;99.90;;;;;;6152960;23;20976;-68
2023/08/24 05:38:26;;;;;;;3.00;2.90;;;18.50;99.90;;;;;;6153217;23;20419;-67
2023/08/24 05:40:53;;;;;;;3.70;3.40;;;18.60;99.90;;;;;;6153020;23;20453;-67
2023/08/24 05:43:21;;;;;;;4.30;3.93;;;18.60;99.90;;;;;;6152880;23;20426;-67
2023/08/24 05:45:48;;;;;;;4.43;4.13;;;18.70;99.90;;;;;;6153388;23;20493;-67
2023/08/24 05:48:16;;;;;;;3.87;3.57;;;18.70;99.90;;;;;;6153084;23;20728;-67
2023/08/24 05:50:46;;;;;;;3.20;2.87;;;18.70;99.90;;;;;;6152500;23;20415;-67
2023/08/24 05:53:13;;;;;;;3.27;3.07;;;18.70;99.90;;;;;;6153620;23;20425;-67
2023/08/24 05:55:40;;;;;;;2.73;2.63;;;18.60;99.90;;;;;;6153682;23;21011;-67
2023/08/24 05:58:07;;;;;;;2.70;2.60;;;18.60;99.90;;;;;;6153314;23;20427;-67
2023/08/24 06:00:35;;;;;;;2.10;2.00;;;18.60;99.90;;;;;;6151281;23;20450;-67
2023/08/24 06:03:02;;;;;;;2.60;2.50;;;18.60;99.90;;;;;;6153045;23;20425;-67
2023/08/24 06:05:31;;;;;;;3.23;3.03;;;18.60;99.90;;;;;;6153034;23;20474;-67
2023/08/24 06:07:58;;;;;;;5.90;3.13;;;18.50;99.90;;;;;;6153777;23;20419;-69
2023/08/24 06:10:26;;;;;;;4.20;2.80;;;18.50;99.90;;;;;;6152319;23;20931;-70
2023/08/24 06:12:53;;;;;;;6.07;4.20;;;18.50;99.90;;;;;;6153660;23;20776;-70
2023/08/24 06:15:20;;;;;;;2.87;2.77;;;18.60;99.90;;;;;;6152690;23;20942;-70
2023/08/24 06:17:49;;;;;;;4.30;3.90;;;18.70;99.90;;;;;;6153064;23;20418;-70
2023/08/24 06:20:16;;;;;;;4.13;3.13;;;19.20;99.90;;;;;;6152203;23;20754;-70
2023/08/24 06:22:43;;;;;;;2.80;2.60;;;19.70;99.90;;;;;;6153622;23;20905;-70
2023/08/24 06:25:10;;;;;;;2.53;2.53;;;20.10;99.90;;;;;;6153912;23;20985;-69
2023/08/24 06:27:37;;;;;;;2.97;2.07;;;20.50;99.90;;;;;;6153923;23;20429;-71
2023/08/24 06:30:04;;;;;;;2.37;2.27;;;20.80;99.90;;;;;;6153532;23;20429;-70
2023/08/24 06:32:31;;;;;;;2.17;2.07;;;20.80;99.90;;;;;;6152962;23;20419;-70
2023/08/24 06:35:00;;;;;;;2.23;2.13;;;20.70;99.90;;;;;;6149679;23;21190;-70
2023/08/24 06:37:27;;;;;;;2.67;2.57;;;20.50;99.90;;;;;;6153374;23;20505;-70
2023/08/24 06:39:53;;;;;;;1.83;1.80;;;20.40;99.90;;;;;;6152722;23;20422;-71
2023/08/24 06:42:20;;;;;;;2.00;1.90;;;20.20;99.90;;;;;;6152983;23;20454;-70
2023/08/24 06:44:49;;;;;;;1.37;1.37;;;20.00;99.90;;;;;;6152262;23;20441;-70
2023/08/24 06:47:16;;;;;;;3.03;1.60;;;19.90;99.90;;;;;;6153601;23;20421;-70
2023/08/24 06:49:43;;;;;;;1.13;1.13;;;20.00;99.90;;;;;;6153472;23;20421;-70
2023/08/24 06:52:11;;;;;;;1.50;1.50;;;20.10;99.90;;;;;;6154714;23;20419;-71
2023/08/24 06:54:38;;;;;;;1.07;1.07;;;20.10;99.90;;;;;;6154009;23;20847;-72
2023/08/24 06:57:05;;;;;;;2.00;1.90;;;20.10;99.90;;;;;;6164018;23;20430;-70
2023/08/24 06:59:31;;;;;;;1.20;1.20;;;20.20;99.90;;;;;;6152951;23;20452;-72
2023/08/24 07:01:58;;;;;;;1.83;1.83;;;20.20;99.90;;;;;;6154879;23;20450;-71
2023/08/24 07:04:26;;;;;;;1.30;1.20;;;20.40;99.90;;;;;;6153962;23;20488;-70
2023/08/24 07:06:53;;;;;;;1.80;1.73;;;20.50;99.90;;;;;;6155229;23;20973;-71
2023/08/24 07:09:21;;;;;;;1.60;1.60;;;20.50;99.90;;;;;;6153608;23;20431;-73
2023/08/24 07:11:48;;;;;;;1.20;1.20;;;20.50;99.90;;;;;;6154827;23;20693;-71
2023/08/24 07:14:15;;;;;;;1.57;1.47;;;20.50;99.90;;;;;;6164539;23;20417;-71
2023/08/24 07:16:42;;;;;;;1.60;1.33;;;20.50;99.90;;;;;;6154949;23;20448;-71
2023/08/24 07:19:10;;;;;;;0.90;0.90;;;20.50;99.90;;;;;;6153701;23;20935;-71
2023/08/24 07:21:36;;;;;;;3.33;1.37;;;20.40;99.90;;;;;;6154880;23;20452;-72
2023/08/24 07:24:03;;;;;;;1.30;1.20;;;20.30;99.90;;;;;;6154496;23;20420;-71
2023/08/24 07:26:32;;;;;;;1.20;1.20;;;20.20;99.90;;;;;;6154762;23;20441;-73
2023/08/24 07:28:58;;;;;;;1.07;1.07;;;20.20;99.90;;;;;;6153687;23;20746;-73
2023/08/24 07:31:25;;;;;;;1.30;1.30;;;20.20;99.90;;;;;;6154554;23;20420;-72
2023/08/24 07:33:52;;;;;;;1.37;1.33;;;20.20;99.90;;;;;;6154451;23;20432;-71
2023/08/24 07:36:19;;;;;;;2.33;1.20;;;20.20;99.90;;;;;;6155225;23;20440;-72
2023/08/24 07:38:46;;;;;;;2.30;0.80;;;20.20;99.90;;;;;;6153855;23;20424;-71
2023/08/24 07:41:13;;;;;;;1.53;1.53;;;20.30;99.90;;;;;;6154197;23;20444;-72
2023/08/24 07:43:41;;;;;;;1.50;1.50;;;20.30;99.90;;;;;;6154332;23;20442;-71
2023/08/24 07:46:08;;;;;;;0.77;0.77;;;20.50;99.90;;;;;;6153849;23;20443;-71
2023/08/24 07:48:35;;;;;;;1.37;1.20;;;20.40;99.90;;;;;;6153773;23;20431;-71
2023/08/24 07:51:01;;;;;;;1.07;1.07;;;20.40;99.90;;;;;;6160850;23;20420;-71
2023/08/24 07:53:28;;;;;;;1.10;1.10;;;20.50;99.90;;;;;;6154569;23;20917;-72
2023/08/24 07:55:55;;;;;;;2.60;1.60;;;20.50;99.90;;;;;;6155683;23;20440;-72
2023/08/24 07:58:22;;;;;;;1.20;1.10;;;20.60;99.90;;;;;;6155351;23;20419;-72
2023/08/24 08:00:51;;;;;;;1.50;1.50;;;20.60;99.90;;;;;;6153987;23;20420;-73
2023/08/24 08:03:18;;;;;;;1.93;1.83;;;20.70;99.90;;;;;;6155029;23;20430;-72
2023/08/24 08:05:46;;;;;;;1.43;1.43;;;20.70;99.90;;;;;;6153376;23;20506;-71
2023/08/24 08:08:12;;;;;;;4.10;1.97;;;20.80;99.90;;;;;;6153276;23;20422;-72
2023/08/24 08:10:39;;;;;;;1.13;1.13;;;20.80;99.90;;;;;;6153881;23;20429;-72
2023/08/24 08:13:06;;;;;;;1.70;1.70;;;20.80;99.90;;;;;;6155464;23;20424;-72
2023/08/24 08:15:33;;;;;;;1.83;1.70;;;20.90;99.90;;;;;;6154291;23;20447;-72
2023/08/24 08:18:01;;;;;;;3.30;1.93;;;20.90;99.90;;;;;;6154977;23;20420;-72
2023/08/24 08:20:28;;;;;;;1.57;1.57;;;21.00;99.90;;;;;;6163194;23;20424;-71
2023/08/24 08:22:54;;;;;;;1.53;1.43;;;21.10;99.90;;;;;;6153488;23;20453;-72
2023/08/24 08:25:22;;;;;;;1.60;1.60;;;21.10;99.90;;;;;;6153445;23;20928;-72
2023/08/24 08:27:48;;;;;;;1.50;1.40;;;21.20;99.90;;;;;;6154068;23;20734;-72
2023/08/24 08:30:15;;;;;;;1.70;1.70;;;21.20;99.90;;;;;;6154583;23;20426;-72
2023/08/24 08:32:42;;;;;;;1.37;1.37;;;21.30;99.90;;;;;;6153366;23;20422;-72
2023/08/24 08:35:10;;;;;;;1.53;1.53;;;21.40;99.90;;;;;;6154451;23;20520;-71
2023/08/24 08:37:37;;;;;;;0.70;0.70;;;21.50;99.90;;;;;;6154374;23;20432;-72
2023/08/24 08:40:05;;;;;;;4.00;2.53;;;21.50;99.90;;;;;;6153670;23;20426;-71
2023/08/24 08:42:33;;;;;;;1.40;1.40;;;21.50;99.90;;;;;;6153600;23;20442;-71
2023/08/24 08:45:02;;;;;;;1.40;1.30;;;21.70;99.90;;;;;;6152651;23;20442;-71
2023/08/24 08:47:29;;;;;;;1.87;1.80;;;21.80;99.90;;;;;;6155042;23;20513;-72
2023/08/24 08:49:56;;;;;;;1.70;1.70;;;21.80;99.90;;;;;;6152671;23;20429;-71
2023/08/24 08:52:25;;;;;;;2.87;1.60;;;21.80;99.90;;;;;;6152579;23;21083;-73
2023/08/24 08:54:52;;;;;;;6.40;1.77;;;21.80;99.90;;;;;;6152732;23;20448;-72
2023/08/24 08:57:21;;;;;;;4.43;1.10;;;21.90;99.90;;;;;;6153047;23;20819;-72
2023/08/24 08:59:49;;;;;;;1.10;1.10;;;22.10;99.90;;;;;;6152312;23;20422;-71
2023/08/24 09:02:19;;;;;;;1.33;1.33;;;22.10;99.90;;;;;;6152259;23;20485;-71
2023/08/24 09:04:48;;;;;;;1.17;1.13;;;22.20;99.90;;;;;;6153202;23;20446;-71
2023/08/24 09:07:15;;;;;;;1.67;1.67;;;22.30;99.90;;;;;;6153243;23;20423;-71
2023/08/24 09:09:43;;;;;;;1.40;1.40;;;22.40;99.90;;;;;;6153233;23;20422;-72
2023/08/24 09:12:10;;;;;;;1.50;1.20;;;22.40;99.90;;;;;;6153410;23;20418;-72
2023/08/24 09:14:37;;;;;;;1.27;1.27;;;22.40;99.90;;;;;;6153794;23;20451;-71
2023/08/24 09:17:04;;;;;;;3.23;1.10;;;22.50;99.90;;;;;;6152328;23;20501;-72
2023/08/24 09:19:32;;;;;;;1.37;1.07;;;22.50;99.90;;;;;;6153159;23;20433;-71
2023/08/24 09:21:59;;;;;;;1.93;1.93;;;22.60;99.90;;;;;;6155155;23;20445;-71
2023/08/24 09:24:32;;;;;;;4.13;1.50;;;22.70;99.90;;;;;;6152562;23;20419;-71
2023/08/24 09:27:01;;;;;;;1.33;1.33;;;22.60;99.90;;;;;;6154760;23;20423;-72
2023/08/24 09:29:28;;;;;;;1.33;0.90;;;22.70;99.90;;;;;;6154119;23;20426;-72
2023/08/24 09:31:55;;;;;;;1.40;1.40;;;22.70;99.90;;;;;;6152120;23;20415;-72
2023/08/24 09:34:27;;;;;;;2.10;1.30;;;22.80;99.90;;;;;;6152404;23;20427;-72
2023/08/24 09:36:53;;;;;;;1.20;1.20;;;22.90;99.90;;;;;;6153206;23;20413;-72
2023/08/24 09:39:21;;;;;;;1.70;1.60;;;23.00;99.90;;;;;;6152728;23;21059;-72
2023/08/24 09:41:50;;;;;;;1.43;1.40;;;23.10;99.90;;;;;;6154843;23;20450;-71
2023/08/24 09:44:19;;;;;;;1.43;1.43;;;23.10;99.90;;;;;;6154948;23;20420;-72
2023/08/24 09:46:46;;;;;;;2.13;1.27;;;23.20;99.90;;;;;;6153298;23;20422;-73
2023/08/24 09:49:13;;;;;;;1.27;1.27;;;23.20;99.90;;;;;;6152786;23;20425;-74
2023/08/24 09:51:41;;;;;;;6.50;1.33;;;23.20;99.90;;;;;;6153187;23;20848;-71
2023/08/24 09:54:09;;;;;;;1.13;1.13;;;23.30;99.90;;;;;;6152622;23;20420;-71
2023/08/24 09:56:37;;;;;;;1.23;1.23;;;23.30;99.90;;;;;;6152845;23;20546;-72
2023/08/24 09:59:11;;;;;;;1.57;1.23;;;23.30;99.90;;;;;;6152083;23;20420;-71
2023/08/24 10:01:42;;;;;;;2.00;1.70;;;23.30;99.90;;;;;;6152928;23;20439;-71
2023/08/24 10:04:10;;;;;;;1.60;1.60;;;23.30;99.90;;;;;;6151838;23;20403;-71
2023/08/24 10:06:39;;;;;;;2.67;1.60;;;23.50;99.90;;;;;;6153479;23;20470;-73
2023/08/24 10:09:08;;;;;;;2.43;2.23;;;23.60;99.90;;;;;;6152626;23;20430;-71
2023/08/24 10:11:40;;;;;;;1.87;1.77;;;23.50;99.90;;;;;;6153349;23;20418;-71
2023/08/24 10:14:20;;;;;;;2.20;1.90;;;23.60;99.90;;;;;;6152449;23;20411;-71
2023/08/24 10:16:48;;;;;;;1.60;1.60;;;23.60;99.90;;;;;;6152135;23;20460;-69
2023/08/24 10:19:15;;;;;;;1.70;1.70;;;23.60;99.90;;;;;;6151667;23;20425;-70
2023/08/24 10:21:43;;;;;;;1.70;1.70;;;23.70;99.90;;;;;;6152417;23;20449;-69
2023/08/24 10:24:12;;;;;;;1.70;1.70;;;23.90;99.90;;;;;;6153595;23;20423;-69
2023/08/24 10:26:40;;;;;;;1.80;1.80;;;23.90;99.90;;;;;;6150744;23;20451;-70
2023/08/24 10:29:08;;;;;;;1.73;1.60;;;23.90;99.90;;;;;;6162728;23;20436;-70
2023/08/24 10:31:35;;;;;;;1.50;1.50;;;23.80;99.90;;;;;;6153546;23;20424;-70
2023/08/24 10:34:06;;;;;;;2.20;2.20;;;23.90;99.90;;;;;;6153073;23;20436;-69
2023/08/24 10:36:33;;;;;;;2.23;2.23;;;24.00;99.90;;;;;;6154672;23;20447;-69
2023/08/24 10:39:05;;;;;;;2.13;1.90;;;24.10;99.90;;;;;;6153122;23;20428;-69
2023/08/24 10:41:47;;;;;;;1.87;1.87;;;24.20;99.90;;;;;;6154646;23;20505;-67
2023/08/24 10:44:22;;;;;;;1.50;1.50;;;24.00;99.90;;;;;;6154161;23;20438;-67
2023/08/24 10:47:06;;;;;;;3.87;1.93;;;24.00;99.90;;;;;;6154098;23;20441;-70
2023/08/24 10:49:34;;;;;;;3.00;2.10;;;23.90;99.90;;;;;;6153613;23;20705;-69
2023/08/24 10:52:20;;;;;;;1.27;1.27;;;23.90;99.90;;;;;;6154444;23;20416;-67
2023/08/24 10:54:48;;;;;;;1.83;1.83;;;23.90;99.90;;;;;;6154015;23;20703;-68
2023/08/24 10:57:23;;;;;;;1.47;1.47;;;24.00;99.90;;;;;;6153975;23;20418;-68
2023/08/24 11:00:00;;;;;;;1.50;1.50;;;24.00;99.90;;;;;;6153624;23;20420;-68
2023/08/24 11:02:27;;;;;;;1.40;1.40;;;24.10;99.90;;;;;;6153514;23;20501;-68
2023/08/24 11:05:08;;;;;;;1.70;1.70;;;24.20;99.90;;;;;;6153354;23;20479;-68
2023/08/24 11:07:35;;;;;;;1.80;1.70;;;24.30;99.90;;;;;;6153212;23;20423;-68
2023/08/24 11:10:13;;;;;;;1.40;1.40;;;24.40;99.90;;;;;;6152221;23;20422;-68
2023/08/24 11:13:11;;;;;;;1.43;1.43;;;24.50;99.90;;;;;;6152944;23;20773;-68
2023/08/24 11:15:40;;;;;;;1.67;1.67;;;24.60;99.90;;;;;;6152311;23;20453;-69
2023/08/24 11:18:24;;;;;;;1.10;1.10;;;24.60;99.90;;;;;;6152708;23;20419;-68
2023/08/24 11:20:54;;;;;;;1.20;1.20;;;24.60;99.90;;;;;;6153997;23;20871;-69
2023/08/24 11:23:23;;;;;;;0.90;0.90;;;24.70;99.90;;;;;;6152348;23;20447;-68
2023/08/24 11:25:54;;;;;;;2.43;1.60;;;24.70;99.90;;;;;;6154189;23;20518;-68
2023/08/24 11:28:22;;;;;;;1.30;1.30;;;24.70;99.90;;;;;;6153604;23;20464;-69
2023/08/24 11:30:50;;;;;;;1.20;1.20;;;24.70;99.90;;;;;;6152177;23;20428;-69
2023/08/24 11:33:17;;;;;;;1.53;1.53;;;24.80;99.90;;;;;;6154399;23;20927;-69
2023/08/24 11:35:45;;;;;;;2.00;2.00;;;24.90;99.90;;;;;;6154470;23;20494;-69
2023/08/24 11:38:14;;;;;;;1.70;1.60;;;25.00;99.90;;;;;;6155167;23;20419;-69
2023/08/24 11:40:40;;;;;;;1.60;1.60;;;25.00;99.90;;;;;;6154538;23;20423;-69
2023/08/24 11:43:07;;;;;;;1.77;1.67;;;25.00;99.90;;;;;;6155816;23;20763;-69
2023/08/24 11:45:37;;;;;;;1.63;1.60;;;25.10;99.90;;;;;;6154976;23;20448;-69
2023/08/24 11:48:05;;;;;;;1.73;1.63;;;25.10;99.90;;;;;;6155904;23;20890;-69
2023/08/24 11:50:32;;;;;;;1.30;1.30;;;25.20;99.90;;;;;;6155594;23;20425;-69
2023/08/24 11:52:59;;;;;;;1.50;1.50;;;25.20;99.90;;;;;;6155779;23;20418;-70
2023/08/24 11:55:27;;;;;;;1.80;1.73;;;25.00;99.90;;;;;;6154854;23;20439;-69
2023/08/24 11:57:55;;;;;;;1.70;1.10;;;25.40;99.90;;;;;;6155718;23;20503;-69
2023/08/24 12:00:22;;;;;;;1.70;1.60;;;25.50;99.90;;;;;;6154352;23;20432;-69
2023/08/24 12:02:50;;;;;;;2.80;2.00;;;25.60;99.90;;;;;;6153161;23;20453;-69
2023/08/24 12:05:24;;;;;;;1.50;1.40;;;25.70;99.90;;;;;;6154183;23;20974;-69
2023/08/24 12:07:53;;;;;;;1.33;1.33;;;25.70;99.90;;;;;;6154637;23;20421;-69
2023/08/24 12:10:20;;;;;;;1.33;1.30;;;25.80;99.90;;;;;;6153966;23;20756;-69
2023/08/24 12:12:48;;;;;;;1.83;1.83;;;25.80;99.90;;;;;;6154605;23;20415;-69
2023/08/24 12:15:19;;;;;;;1.60;1.60;;;25.80;99.90;;;;;;6160965;23;20535;-69
2023/08/24 12:17:47;;;;;;;1.43;0.90;;;25.90;99.90;;;;;;6154199;23;20456;-69
2023/08/24 12:20:22;;;;;;;5.73;2.77;;;25.90;99.90;;;;;;6153063;23;20519;-69
2023/08/24 12:22:53;;;;;;;1.83;1.83;;;25.80;99.90;;;;;;6154259;23;20449;-69
2023/08/24 12:25:22;;;;;;;1.53;1.40;;;25.80;99.90;;;;;;6152714;23;20442;-70
2023/08/24 12:27:51;;;;;;;1.40;1.40;;;26.00;99.90;;;;;;6153983;23;20429;-69
2023/08/24 12:30:18;;;;;;;3.10;1.20;;;26.10;99.90;;;;;;6151303;23;20422;-68
2023/08/24 12:32:44;;;;;;;1.70;1.70;;;26.20;99.90;;;;;;6158334;23;20428;-71
2023/08/24 12:35:11;;;;;;;1.87;1.77;;;26.30;99.90;;;;;;6149460;23;20451;-69
2023/08/24 12:37:38;;;;;;;1.23;1.23;;;26.60;99.90;;;;;;6154110;23;20730;-69
2023/08/24 12:40:05;;;;;;;1.80;1.80;;;26.70;99.90;;;;;;6148802;23;21208;-70
2023/08/24 12:42:32;;;;;;;1.37;1.27;;;26.70;99.90;;;;;;6152950;23;20959;-70
2023/08/24 12:45:00;;;;;;;1.30;1.30;;;26.80;99.90;;;;;;6154230;23;20439;-70
2023/08/24 12:47:27;;;;;;;1.33;1.23;;;26.80;99.90;;;;;;6152813;23;20450;-70
2023/08/24 12:49:55;;;;;;;1.47;1.47;;;26.70;99.90;;;;;;6153219;23;20687;-69
2023/08/24 12:52:24;;;;;;;1.10;1.10;;;26.70;99.90;;;;;;6153657;23;20958;-69
2023/08/24 12:54:51;;;;;;;1.67;1.57;;;26.60;99.90;;;;;;6153054;23;20422;-70
2023/08/24 12:57:18;;;;;;;1.40;1.40;;;26.60;99.90;;;;;;6153558;23;20899;-69
2023/08/24 12:59:46;;;;;;;2.20;1.53;;;26.50;99.90;;;;;;6154350;23;20419;-69
2023/08/24 13:02:14;;;;;;;1.60;1.60;;;26.40;99.90;;;;;;6153155;23;20477;-69
2023/08/24 13:04:40;;;;;;;1.87;1.77;;;26.50;99.90;;;;;;6152748;23;20430;-69
2023/08/24 13:07:07;;;;;;;1.70;1.70;;;26.60;99.90;;;;;;6154326;23;20425;-70
2023/08/24 13:09:35;;;;;;;1.53;1.53;;;26.60;99.90;;;;;;6151519;23;20505;-69
2023/08/24 13:12:02;;;;;;;1.60;1.60;;;26.70;99.90;;;;;;6154098;23;20919;-69
2023/08/24 13:14:29;;;;;;;1.60;1.60;;;26.80;99.90;;;;;;6151854;23;20421;-69
2023/08/24 13:16:56;;;;;;;1.87;1.77;;;26.80;99.90;;;;;;6152292;23;20453;-68
2023/08/24 13:19:24;;;;;;;1.60;1.60;;;26.80;99.90;;;;;;6148593;23;20833;-69
2023/08/24 13:21:50;;;;;;;1.80;1.80;;;26.70;99.90;;;;;;6152479;23;20432;-70
2023/08/24 13:24:17;;;;;;;2.10;2.10;;;26.70;99.90;;;;;;6153129;23;20454;-69
2023/08/24 13:26:44;;;;;;;1.97;1.87;;;26.60;99.90;;;;;;6153044;23;20443;-70
2023/08/24 13:29:11;;;;;;;1.87;1.87;;;26.70;99.90;;;;;;6153009;23;20759;-70
2023/08/24 13:31:37;;;;;;;1.50;1.50;;;26.60;99.90;;;;;;6153647;23;20419;-70
2023/08/24 13:34:07;;;;;;;1.60;1.60;;;26.70;99.90;;;;;;6152741;23;20764;-68
2023/08/24 13:36:35;;;;;;;1.70;1.70;;;26.60;99.90;;;;;;6152833;23;20752;-70
2023/08/24 13:39:02;;;;;;;1.47;1.47;;;26.60;99.90;;;;;;6153379;23;20425;-68
2023/08/24 13:41:29;;;;;;;1.50;1.50;;;26.60;99.90;;;;;;6152062;23;20441;-69
2023/08/24 13:43:55;;;;;;;1.50;1.50;;;26.70;99.90;;;;;;6153405;23;20461;-70
2023/08/24 13:46:22;;;;;;;1.53;1.50;;;26.70;99.90;;;;;;6154426;23;20438;-71
2023/08/24 13:48:49;;;;;;;6.23;1.80;;;26.90;99.90;;;;;;6154228;23;20418;-69
2023/08/24 13:51:15;;;;;;;1.30;1.30;;;26.90;99.90;;;;;;6154179;23;20423;-69
2023/08/24 13:53:44;;;;;;;1.40;1.40;;;26.70;99.90;;;;;;6154548;23;20422;-71
2023/08/24 13:56:10;;;;;;;1.40;1.40;;;26.70;99.90;;;;;;6153968;23;20442;-71
2023/08/24 13:58:37;;;;;;;1.37;1.37;;;26.70;99.90;;;;;;6153134;23;20438;-69
2023/08/24 14:01:04;;;;;;;1.53;1.53;;;26.80;99.90;;;;;;6153411;23;20505;-70
2023/08/24 14:03:30;;;;;;;1.33;1.33;;;26.90;99.90;;;;;;6154282;23;20438;-70
2023/08/24 14:05:58;;;;;;;1.60;1.60;;;27.00;99.90;;;;;;6153460;23;20442;-69
2023/08/24 14:08:25;;;;;;;1.10;1.10;;;27.00;99.90;;;;;;6151239;23;20418;-70
2023/08/24 14:10:54;;;;;;;1.50;1.37;;;27.00;99.90;;;;;;6153999;23;20407;-69
2023/08/24 14:13:21;;;;;;;1.50;1.50;;;26.90;99.90;;;;;;6154426;23;20420;-70
2023/08/24 14:15:49;;;;;;;1.47;1.47;;;27.00;99.90;;;;;;6153440;23;20501;-68
2023/08/24 14:18:16;;;;;;;1.80;1.70;;;27.00;99.90;;;;;;6152218;23;20507;-68
2023/08/24 14:20:43;;;;;;;1.60;1.60;;;27.10;99.90;;;;;;6152644;23;20418;-70
2023/08/24 14:23:10;;;;;;;1.10;1.10;;;27.10;99.90;;;;;;6153104;23;20791;-70
2023/08/24 14:25:36;;;;;;;1.53;1.53;;;27.10;99.90;;;;;;6152012;23;20442;-71
2023/08/24 14:28:05;;;;;;;1.57;1.50;;;27.20;99.90;;;;;;6152509;23;20426;-71
2023/08/24 14:30:32;;;;;;;1.67;1.67;;;27.20;99.90;;;;;;6153256;23;20418;-71
2023/08/24 14:32:58;;;;;;;1.63;1.50;;;27.10;99.90;;;;;;6151759;23;20422;-70
2023/08/24 14:35:25;;;;;;;1.43;1.43;;;27.10;99.90;;;;;;6152542;23;20996;-70
2023/08/24 14:37:52;;;;;;;1.47;1.47;;;27.10;99.90;;;;;;6153472;23;20426;-70
2023/08/24 14:40:19;;;;;;;1.50;1.50;;;27.10;99.90;;;;;;6152310;23;20428;-69
2023/08/24 14:42:48;;;;;;;1.60;1.60;;;27.00;99.90;;;;;;6152739;23;20422;-70
2023/08/24 14:45:17;;;;;;;1.33;1.30;;;27.00;99.90;;;;;;6153569;23;20448;-70
2023/08/24 14:47:44;;;;;;;1.50;1.50;;;27.00;99.90;;;;;;6153261;23;20456;-70
2023/08/24 14:50:11;;;;;;;1.10;1.10;;;27.00;99.90;;;;;;6152499;23;20434;-70
2023/08/24 14:52:38;;;;;;;1.77;1.77;;;27.10;99.90;;;;;;6153116;23;20422;-70
2023/08/24 14:55:05;;;;;;;1.17;1.17;;;27.00;99.90;;;;;;6157593;23;20439;-70
2023/08/24 14:57:32;;;;;;;1.20;1.20;;;27.10;99.90;;;;;;6179698;23;20433;-69
2023/08/24 14:59:58;;;;;;;1.30;1.30;;;27.10;99.90;;;;;;6179508;23;20411;-67
2023/08/24 15:02:26;;;;;;;1.53;1.40;;;27.00;99.90;;;;;;6178818;23;20437;-68
2023/08/24 15:04:53;;;;;;;1.87;1.87;;;26.90;99.90;;;;;;6174121;23;20442;-70
2023/08/24 15:07:20;;;;;;;1.40;1.40;;;26.90;99.90;;;;;;6154338;23;20430;-70
2023/08/24 15:09:46;;;;;;;1.87;1.87;;;26.90;99.90;;;;;;6155269;23;20910;-71
2023/08/24 15:12:13;;;;;;;1.40;1.40;;;26.80;99.90;;;;;;6154943;23;20418;-70
2023/08/24 15:14:57;;;;;;;2.10;1.67;;;26.90;99.90;;;;;;6155105;23;20421;-71
2023/08/24 15:17:25;;;;;;;1.83;1.77;;;26.80;99.90;;;;;;6154991;23;20403;-70
2023/08/24 15:19:52;;;;;;;2.00;1.90;;;26.70;99.90;;;;;;6154465;23;20422;-70
2023/08/24 15:22:19;;;;;;;1.50;1.50;;;26.70;99.90;;;;;;6154989;23;20440;-70
2023/08/24 15:24:45;;;;;;;1.20;1.20;;;26.60;99.90;;;;;;6154650;23;20452;-70
2023/08/24 15:27:12;;;;;;;2.23;1.43;;;26.60;99.90;;;;;;6155243;23;20418;-70
2023/08/24 15:29:39;;;;;;;1.60;1.60;;;26.60;99.90;;;;;;6154562;23;20427;-71
2023/08/24 15:32:06;;;;;;;1.80;1.80;;;26.60;99.90;;;;;;6154999;23;20423;-69
2023/08/24 15:34:34;;;;;;;1.43;1.43;;;26.60;99.90;;;;;;6154622;23;20422;-70
2023/08/24 15:37:01;;;;;;;2.00;2.00;;;26.60;99.90;;;;;;6154405;23;20844;-70
2023/08/24 15:39:28;;;;;;;3.63;1.50;;;26.60;99.90;;;;;;6151015;23;20433;-69
2023/08/24 15:41:54;;;;;;;1.47;1.47;;;26.50;99.90;;;;;;6153732;23;20422;-70
2023/08/24 15:44:21;;;;;;;1.40;1.33;;;26.50;99.90;;;;;;6155165;23;20787;-70
2023/08/24 15:46:48;;;;;;;1.80;1.80;;;26.50;99.90;;;;;;6154894;23;20443;-70
2023/08/24 15:49:14;;;;;;;1.53;1.53;;;26.40;99.90;;;;;;6155175;23;20429;-69
2023/08/24 15:51:43;;;;;;;1.20;1.20;;;26.40;99.90;;;;;;6155061;23;20423;-70
2023/08/24 15:54:09;;;;;;;2.10;2.00;;;26.40;99.90;;;;;;6154136;23;20409;-71
2023/08/24 15:56:36;;;;;;;1.80;1.70;;;26.40;99.90;;;;;;6154781;23;20209;-70
2023/08/24 15:59:03;;;;;;;1.70;1.70;;;26.40;99.90;;;;;;6153549;23;20701;-70
2023/08/24 16:01:30;;;;;;;1.67;1.57;;;26.40;99.90;;;;;;6155014;23;20419;-70
2023/08/24 16:03:56;;;;;;;3.07;2.03;;;26.40;99.90;;;;;;6153377;23;20452;-69
2023/08/24 16:06:23;;;;;;;1.40;1.40;;;26.40;99.90;;;;;;6155297;23;20439;-71
2023/08/24 16:08:51;;;;;;;1.70;1.70;;;26.30;99.90;;;;;;6153883;23;20432;-71
2023/08/24 16:11:18;;;;;;;1.43;1.43;;;26.30;99.90;;;;;;6155045;23;20418;-71
2023/08/24 16:13:44;;;;;;;1.80;1.80;;;26.20;99.90;;;;;;6154571;23;20418;-68
2023/08/24 16:16:11;;;;;;;1.50;1.50;;;26.20;99.90;;;;;;6152972;23;20473;-68
2023/08/24 16:18:38;;;;;;;1.60;1.60;;;26.20;99.90;;;;;;6153213;23;20415;-68
2023/08/24 16:21:05;;;;;;;3.17;2.03;;;26.20;99.90;;;;;;6153906;23;20868;-68
2023/08/24 16:23:31;;;;;;;1.83;1.83;;;26.10;99.90;;;;;;6152993;23;20450;-68
2023/08/24 16:25:59;;;;;;;1.40;1.40;;;26.10;99.90;;;;;;6153462;23;20453;-68
2023/08/24 16:28:26;;;;;;;1.60;1.60;;;26.10;99.90;;;;;;6153435;23;20896;-68
2023/08/24 16:30:53;;;;;;;1.57;1.57;;;26.00;99.90;;;;;;6156081;23;20449;-68
2023/08/24 16:33:20;;;;;;;1.87;1.87;;;26.00;99.90;;;;;;6154190;23;20432;-70
2023/08/24 16:35:47;;;;;;;1.87;1.43;;;26.00;99.90;;;;;;6153713;23;20441;-69
2023/08/24 16:38:14;;;;;;;2.07;2.00;;;25.90;99.90;;;;;;6154338;23;20423;-68
2023/08/24 16:40:41;;;;;;;1.60;1.60;;;25.90;99.90;;;;;;6153385;23;20435;-69
2023/08/24 16:43:09;;;;;;;1.73;1.73;;;25.90;99.90;;;;;;6154758;23;20422;-68
2023/08/24 16:45:36;;;;;;;2.13;2.03;;;25.80;99.90;;;;;;6153341;23;20458;-68
2023/08/24 16:48:03;;;;;;;1.90;1.90;;;25.80;99.90;;;;;;6153128;23;20799;-68
2023/08/24 16:50:30;;;;;;;1.37;1.37;;;25.80;99.90;;;;;;6149683;23;20433;-68